Time;durP1;ratioP1;P1;durP2;ratioP2;P2;SDS_P1;SDS_P2;PMS_P1;PMS_P2;Temp;Humidity;BMP_temperature;BMP_pressure;BME280_temperature;BME280_humidity;BME280_pressure;Samples;Min_cycle;Max_cycle;Signal;HPM_P1;HPM_P2
2023/03/19 07:18:58;;;;;;;3.45;2.50;;;9.10;99.90;;;;;;5252637;23;20318;-64
2023/03/19 07:21:25;;;;;;;2.15;2.05;;;9.20;99.90;;;;;;4997150;28;20210;-64
2023/03/19 07:23:52;;;;;;;2.67;2.47;;;9.40;99.90;;;;;;4997395;28;20202;-65
2023/03/19 07:26:19;;;;;;;2.35;2.25;;;9.70;99.90;;;;;;4997351;28;20241;-64
2023/03/19 07:28:45;;;;;;;3.63;3.28;;;10.00;99.90;;;;;;4997337;28;20292;-64
2023/03/19 07:31:12;;;;;;;3.45;3.13;;;10.20;99.90;;;;;;5019913;23;20298;-65
2023/03/19 07:33:39;;;;;;;3.15;2.92;;;10.20;99.90;;;;;;4997591;28;20218;-65
2023/03/19 07:36:08;;;;;;;3.33;3.13;;;10.20;99.90;;;;;;4997203;28;20202;-64
2023/03/19 07:38:35;;;;;;;3.05;2.30;;;10.20;99.90;;;;;;4997264;28;20207;-64
2023/03/19 07:41:01;;;;;;;4.05;2.97;;;10.10;99.90;;;;;;4997002;28;20202;-65
2023/03/19 07:43:28;;;;;;;4.63;3.25;;;10.00;99.90;;;;;;4997139;28;20214;-65
2023/03/19 07:45:55;;;;;;;3.22;3.00;;;10.10;99.90;;;;;;4997435;28;20211;-64
2023/03/19 07:48:22;;;;;;;3.00;2.80;;;10.10;99.90;;;;;;4996979;28;20568;-64
2023/03/19 07:50:50;;;;;;;3.33;2.78;;;10.10;99.90;;;;;;4997156;28;20210;-64
2023/03/19 07:53:18;;;;;;;4.70;2.90;;;10.20;99.90;;;;;;4996984;28;20227;-64
2023/03/19 07:55:45;;;;;;;3.10;2.80;;;10.30;99.90;;;;;;4997075;28;20203;-64
2023/03/19 07:58:12;;;;;;;3.47;3.10;;;10.40;99.90;;;;;;4996823;28;20261;-64
2023/03/19 08:00:38;;;;;;;3.20;2.90;;;10.40;99.90;;;;;;4997764;28;20261;-64
2023/03/19 08:03:05;;;;;;;3.72;3.25;;;10.50;99.90;;;;;;4996813;28;20230;-64
2023/03/19 08:05:32;;;;;;;6.30;4.45;;;10.70;99.90;;;;;;4996722;28;20202;-64
2023/03/19 08:07:59;;;;;;;5.15;3.30;;;10.80;99.90;;;;;;4996258;28;20670;-64
2023/03/19 08:10:27;;;;;;;6.60;4.45;;;10.90;99.90;;;;;;4996468;28;20210;-64
2023/03/19 08:12:53;;;;;;;6.22;4.13;;;10.90;99.90;;;;;;4996388;28;20226;-64
2023/03/19 08:15:20;;;;;;;8.32;5.20;;;10.90;99.90;;;;;;4995500;28;20710;-65
2023/03/19 08:17:47;;;;;;;7.97;5.57;;;10.80;99.90;;;;;;4996395;28;20203;-65
2023/03/19 08:20:16;;;;;;;8.93;4.07;;;10.80;99.90;;;;;;4996463;28;20202;-65
2023/03/19 08:22:42;;;;;;;3.78;3.22;;;10.70;99.90;;;;;;4996288;28;20646;-63
2023/03/19 08:25:10;;;;;;;6.00;3.38;;;10.80;99.90;;;;;;4996299;28;20194;-62
2023/03/19 08:27:38;;;;;;;4.05;2.95;;;10.80;99.90;;;;;;4995892;28;20207;-63
2023/03/19 08:30:07;;;;;;;3.92;2.80;;;10.70;99.90;;;;;;4996123;28;20214;-62
2023/03/19 08:32:34;;;;;;;2.60;2.40;;;10.70;99.90;;;;;;4995817;28;20226;-63
2023/03/19 08:35:01;;;;;;;2.58;2.38;;;10.80;99.90;;;;;;4996053;28;20269;-63
2023/03/19 08:37:27;;;;;;;3.53;2.83;;;10.80;99.90;;;;;;4996102;28;20210;-63
2023/03/19 08:39:54;;;;;;;2.25;2.05;;;10.80;99.90;;;;;;4995972;28;20226;-64
2023/03/19 08:42:21;;;;;;;2.78;2.20;;;10.80;99.90;;;;;;4995710;28;20672;-64
2023/03/19 08:44:50;;;;;;;8.10;3.20;;;10.80;99.90;;;;;;4996164;28;20203;-63
2023/03/19 08:47:17;;;;;;;4.03;3.08;;;10.70;99.90;;;;;;4995878;28;20199;-62
2023/03/19 08:49:43;;;;;;;4.05;2.90;;;10.60;99.90;;;;;;4995919;28;20613;-63
2023/03/19 08:52:10;;;;;;;2.65;2.45;;;10.70;99.90;;;;;;4995869;28;20227;-64
2023/03/19 08:54:37;;;;;;;2.67;2.47;;;10.80;99.90;;;;;;4995850;28;20218;-65
2023/03/19 08:57:04;;;;;;;3.05;2.20;;;11.10;99.90;;;;;;4995789;28;20210;-64
2023/03/19 08:59:31;;;;;;;2.88;2.65;;;11.50;99.90;;;;;;4995597;28;20203;-64
2023/03/19 09:01:59;;;;;;;3.13;2.65;;;11.90;99.90;;;;;;4995158;28;20233;-64
2023/03/19 09:04:25;;;;;;;3.60;2.65;;;12.30;99.90;;;;;;4995427;28;20294;-64
2023/03/19 09:06:52;;;;;;;4.10;2.65;;;12.70;99.90;;;;;;4995111;28;20254;-63
2023/03/19 09:09:20;;;;;;;3.17;2.90;;;13.10;99.90;;;;;;4995477;28;20268;-64
2023/03/19 09:11:47;;;;;;;3.15;2.67;;;13.30;99.90;;;;;;4995299;28;20233;-64
2023/03/19 09:14:15;;;;;;;4.07;2.50;;;13.50;99.90;;;;;;4995234;28;20218;-64
2023/03/19 09:16:42;;;;;;;7.88;3.00;;;13.70;99.70;;;;;;4995348;28;20198;-64
2023/03/19 09:19:10;;;;;;;3.10;2.58;;;13.90;97.10;;;;;;4995357;28;20241;-65
2023/03/19 09:21:37;;;;;;;2.70;2.50;;;14.00;92.70;;;;;;4995335;28;20226;-64
2023/03/19 09:24:04;;;;;;;5.57;2.58;;;14.20;98.00;;;;;;4995225;28;20234;-64
2023/03/19 09:26:32;;;;;;;2.72;2.47;;;14.40;93.10;;;;;;4994606;28;20209;-64
2023/03/19 09:28:59;;;;;;;4.10;2.60;;;14.50;84.90;;;;;;4994575;28;20566;-64
2023/03/19 09:31:26;;;;;;;2.35;2.13;;;14.70;82.10;;;;;;4994883;28;20280;-65
2023/03/19 09:33:53;;;;;;;5.50;2.65;;;14.60;82.80;;;;;;4995015;28;20191;-64
2023/03/19 09:36:21;;;;;;;3.20;2.53;;;14.70;80.60;;;;;;4994986;28;20198;-64
2023/03/19 09:38:47;;;;;;;3.25;2.03;;;14.60;79.40;;;;;;4994786;28;20187;-64
2023/03/19 09:41:20;;;;;;;3.33;2.60;;;14.50;82.80;;;;;;4997579;28;20206;-65
2023/03/19 09:43:59;;;;;;;3.92;2.83;;;14.40;79.30;;;;;;4998715;28;20187;-65
2023/03/19 09:46:32;;;;;;;3.40;2.28;;;14.20;82.70;;;;;;4998179;28;20198;-65
2023/03/19 09:49:04;;;;;;;4.13;3.28;;;14.30;92.50;;;;;;4998055;28;20195;-65
2023/03/19 09:51:41;;;;;;;6.43;3.30;;;14.50;84.90;;;;;;4995956;28;20585;-64
2023/03/19 09:54:21;;;;;;;5.70;2.80;;;14.20;87.40;;;;;;4995140;28;20634;-64
2023/03/19 09:56:49;;;;;;;2.70;2.50;;;14.30;82.60;;;;;;4995637;28;20602;-65
2023/03/19 09:59:16;;;;;;;4.00;2.17;;;14.30;90.10;;;;;;4996610;28;20199;-65
2023/03/19 10:01:49;;;;;;;3.13;2.80;;;14.60;87.20;;;;;;4997517;28;20690;-65
2023/03/19 10:04:41;;;;;;;5.50;3.15;;;14.30;84.60;;;;;;4996503;28;20190;-64
2023/03/19 10:07:24;;;;;;;5.68;2.70;;;14.30;84.70;;;;;;4995306;28;20274;-64
2023/03/19 10:10:01;;;;;;;3.40;2.95;;;14.20;82.60;;;;;;4994738;28;20186;-64
2023/03/19 10:12:42;;;;;;;3.90;2.78;;;13.90;88.40;;;;;;4995056;28;20269;-64
2023/03/19 10:15:18;;;;;;;3.20;2.30;;;14.00;92.30;;;;;;4994575;28;20212;-62
2023/03/19 10:17:54;;;;;;;3.15;2.85;;;14.20;89.80;;;;;;4995289;28;20187;-62
2023/03/19 10:20:29;;;;;;;7.45;3.13;;;14.40;84.80;;;;;;4994483;28;20191;-63
2023/03/19 10:23:01;;;;;;;3.45;3.03;;;14.60;88.40;;;;;;4994261;28;20226;-65
2023/03/19 10:25:32;;;;;;;4.97;2.85;;;14.80;78.80;;;;;;4994359;28;20273;-62
2023/03/19 10:28:01;;;;;;;2.65;2.45;;;14.90;81.80;;;;;;4994199;28;20203;-62
2023/03/19 10:30:31;;;;;;;3.13;2.63;;;15.10;81.30;;;;;;4994169;28;20565;-63
2023/03/19 10:33:07;;;;;;;2.70;2.40;;;15.30;75.30;;;;;;4993984;28;20234;-63
2023/03/19 10:35:41;;;;;;;2.50;2.00;;;15.30;77.30;;;;;;4994110;28;20681;-64
2023/03/19 10:38:19;;;;;;;4.75;2.17;;;15.40;77.90;;;;;;4995417;28;20182;-64
2023/03/19 10:40:56;;;;;;;4.10;2.13;;;15.70;74.90;;;;;;4999364;28;20198;-64
2023/03/19 10:43:25;;;;;;;1.80;1.67;;;15.80;67.10;;;;;;4998532;28;20225;-63
2023/03/19 10:45:53;;;;;;;2.40;2.15;;;15.70;66.20;;;;;;4998503;28;20190;-63
2023/03/19 10:48:20;;;;;;;2.33;2.13;;;15.60;64.90;;;;;;4997960;28;20207;-63
2023/03/19 10:50:50;;;;;;;1.38;1.27;;;15.60;65.10;;;;;;4997956;28;20305;-62
2023/03/19 10:53:30;;;;;;;1.58;1.40;;;15.50;63.00;;;;;;4997885;28;20258;-64
2023/03/19 10:56:01;;;;;;;3.42;2.10;;;15.40;61.60;;;;;;4997850;28;20210;-64
2023/03/19 10:58:30;;;;;;;6.57;1.70;;;15.20;61.30;;;;;;4997835;28;20187;-64
2023/03/19 11:00:59;;;;;;;1.80;1.60;;;15.00;62.40;;;;;;4997818;28;20202;-64
2023/03/19 11:03:32;;;;;;;1.83;1.60;;;15.00;65.00;;;;;;4997598;28;20637;-64
2023/03/19 11:06:12;;;;;;;2.10;1.90;;;15.00;62.50;;;;;;4997862;28;20198;-64
2023/03/19 11:08:40;;;;;;;1.92;1.45;;;15.00;65.40;;;;;;4997648;28;20197;-63
2023/03/19 11:11:22;;;;;;;6.35;1.70;;;15.40;61.40;;;;;;4997131;28;20678;-63
2023/03/19 11:13:49;;;;;;;1.15;1.15;;;15.50;59.20;;;;;;4997419;28;20643;-64
2023/03/19 11:16:16;;;;;;;2.35;1.80;;;15.50;59.70;;;;;;4997693;28;20222;-64
2023/03/19 11:18:47;;;;;;;4.22;2.00;;;15.60;58.00;;;;;;4997576;28;20210;-64
2023/03/19 11:21:24;;;;;;;1.40;1.40;;;15.60;55.90;;;;;;4997345;28;20249;-63
2023/03/19 11:23:59;;;;;;;1.90;1.30;;;15.60;58.50;;;;;;4997439;28;20182;-63
2023/03/19 11:26:27;;;;;;;1.10;1.05;;;15.80;57.80;;;;;;4997736;28;20222;-63
2023/03/19 11:28:56;;;;;;;2.60;1.23;;;16.10;56.50;;;;;;4997277;28;20245;-62
2023/03/19 11:31:32;;;;;;;4.28;1.70;;;16.30;54.30;;;;;;4996783;28;20613;-62
2023/03/19 11:34:08;;;;;;;1.80;1.50;;;16.30;52.90;;;;;;4997223;28;20218;-63
2023/03/19 11:36:44;;;;;;;3.08;1.70;;;16.30;52.90;;;;;;4997206;28;20206;-63
2023/03/19 11:39:21;;;;;;;1.38;1.30;;;16.10;53.50;;;;;;4997135;28;20237;-63
2023/03/19 11:41:59;;;;;;;4.70;1.55;;;15.90;53.60;;;;;;4996620;28;20241;-63
2023/03/19 11:44:32;;;;;;;2.33;1.45;;;15.80;53.30;;;;;;4997028;28;20187;-64
2023/03/19 11:47:10;;;;;;;2.92;1.50;;;15.80;55.40;;;;;;4996988;28;20190;-64
2023/03/19 11:49:48;;;;;;;1.90;1.52;;;15.80;55.90;;;;;;4996470;28;20282;-63
2023/03/19 11:52:19;;;;;;;3.90;1.75;;;15.80;57.30;;;;;;4996865;28;20652;-64
2023/03/19 11:55:03;;;;;;;1.95;1.42;;;16.00;54.90;;;;;;4996799;28;20187;-64
2023/03/19 11:57:45;;;;;;;3.58;1.65;;;16.00;52.50;;;;;;4996839;28;20190;-64
2023/03/19 12:00:26;;;;;;;16.23;7.10;;;15.90;52.30;;;;;;4996818;28;20187;-63
2023/03/19 12:03:19;;;;;;;4.15;2.30;;;16.00;53.40;;;;;;4996533;28;20227;-63
2023/03/19 12:05:55;;;;;;;5.32;3.00;;;15.90;51.80;;;;;;4996680;28;20183;-64
2023/03/19 12:08:33;;;;;;;3.47;2.47;;;15.80;51.90;;;;;;4996580;28;20248;-64
2023/03/19 12:11:16;;;;;;;6.85;3.35;;;15.80;52.60;;;;;;4996317;28;20187;-63
2023/03/19 12:13:59;;;;;;;2.50;2.20;;;15.80;53.20;;;;;;4996467;28;20237;-64
2023/03/19 12:16:36;;;;;;;5.05;1.98;;;15.90;52.20;;;;;;4996711;28;20217;-64
2023/03/19 12:19:24;;;;;;;1.80;1.70;;;15.90;52.40;;;;;;4996727;28;20233;-64
2023/03/19 12:22:02;;;;;;;3.58;2.13;;;15.80;51.70;;;;;;4996379;28;20223;-64
2023/03/19 12:24:39;;;;;;;2.58;2.30;;;15.70;51.70;;;;;;4996423;28;20237;-64
2023/03/19 12:27:20;;;;;;;2.75;1.73;;;15.50;53.00;;;;;;4996304;28;20199;-63
2023/03/19 12:29:54;;;;;;;2.08;1.55;;;15.40;53.00;;;;;;4996302;28;20186;-64
2023/03/19 12:32:34;;;;;;;2.47;2.28;;;15.10;53.50;;;;;;4995971;28;20230;-64
2023/03/19 12:35:04;;;;;;;2.92;1.80;;;15.00;56.20;;;;;;4996042;28;20210;-64
2023/03/19 12:37:36;;;;;;;5.63;2.70;;;15.10;56.50;;;;;;4995984;28;20198;-64
2023/03/19 12:40:14;;;;;;;3.90;2.15;;;14.90;57.70;;;;;;4995978;28;20285;-63
2023/03/19 12:42:42;;;;;;;3.08;2.45;;;14.70;59.80;;;;;;4995677;28;20233;-63
2023/03/19 12:45:23;;;;;;;4.00;2.28;;;14.60;63.10;;;;;;4995949;28;20206;-64
2023/03/19 12:47:52;;;;;;;2.15;1.95;;;14.60;62.00;;;;;;4995833;28;20187;-63
2023/03/19 12:50:20;;;;;;;3.92;2.00;;;14.80;64.50;;;;;;4995661;28;20207;-64
2023/03/19 12:52:50;;;;;;;8.05;2.60;;;15.00;62.40;;;;;;4995656;28;20222;-64
2023/03/19 12:55:20;;;;;;;2.40;1.95;;;15.20;60.50;;;;;;4995320;28;20641;-64
2023/03/19 12:57:51;;;;;;;1.77;1.50;;;15.30;59.50;;;;;;4995739;28;20273;-63
2023/03/19 13:00:26;;;;;;;2.38;2.17;;;15.40;61.60;;;;;;4995903;28;20274;-64
2023/03/19 13:03:00;;;;;;;2.55;1.73;;;15.50;58.30;;;;;;4995244;28;20273;-63
2023/03/19 13:05:32;;;;;;;2.78;2.30;;;15.60;60.50;;;;;;4995572;28;20187;-63
2023/03/19 13:08:03;;;;;;;2.70;1.92;;;15.60;58.20;;;;;;4995578;28;20190;-63
2023/03/19 13:10:31;;;;;;;5.25;2.72;;;15.50;59.50;;;;;;4995476;28;20191;-64
2023/03/19 13:13:01;;;;;;;4.18;1.98;;;15.50;60.30;;;;;;4995252;28;20250;-64
2023/03/19 13:15:33;;;;;;;4.40;2.22;;;15.50;59.70;;;;;;4995016;28;20779;-63
2023/03/19 13:18:14;;;;;;;3.08;1.90;;;15.50;59.40;;;;;;4995296;28;20191;-64
2023/03/19 13:20:57;;;;;;;2.92;2.38;;;15.40;57.50;;;;;;4995210;28;20190;-64
2023/03/19 13:23:29;;;;;;;2.65;1.50;;;15.30;59.50;;;;;;4995059;28;20226;-64
2023/03/19 13:25:59;;;;;;;3.92;1.83;;;15.30;59.40;;;;;;4995023;28;20187;-64
2023/03/19 13:28:30;;;;;;;2.45;1.65;;;15.40;58.50;;;;;;4994927;28;20305;-64
2023/03/19 13:31:00;;;;;;;2.42;1.67;;;15.40;58.90;;;;;;4995009;28;20593;-63
2023/03/19 13:33:27;;;;;;;2.78;1.67;;;15.50;58.60;;;;;;4994947;28;20226;-64
2023/03/19 13:35:56;;;;;;;1.88;1.67;;;15.50;58.50;;;;;;4995377;28;20316;-64
2023/03/19 13:38:26;;;;;;;3.17;1.95;;;15.60;58.50;;;;;;4995417;28;20227;-64
2023/03/19 13:40:55;;;;;;;3.40;1.83;;;15.60;57.00;;;;;;4995593;28;20294;-64
2023/03/19 13:43:54;;;;;;;1.77;1.65;;;15.60;57.30;;;;;;4994504;28;20269;-64
2023/03/19 13:46:39;;;;;;;1.63;1.50;;;15.50;57.10;;;;;;4998643;28;20282;-64
2023/03/19 13:49:40;;;;;;;1.83;1.30;;;15.50;58.10;;;;;;4997749;28;20225;-63
2023/03/19 13:52:44;;;;;;;1.58;1.23;;;15.50;55.60;;;;;;4996552;28;20226;-64
2023/03/19 13:55:31;;;;;;;4.47;1.85;;;15.50;57.00;;;;;;4995334;28;20213;-64
2023/03/19 13:58:15;;;;;;;1.52;1.42;;;15.60;55.20;;;;;;4996155;28;20638;-64
2023/03/19 14:01:00;;;;;;;2.75;1.70;;;15.50;55.70;;;;;;4996859;28;20191;-64
2023/03/19 14:03:29;;;;;;;1.35;1.35;;;15.60;56.20;;;;;;4995221;28;20226;-65
2023/03/19 14:05:58;;;;;;;2.50;1.52;;;15.90;55.60;;;;;;4997816;28;20183;-64
2023/03/19 14:08:28;;;;;;;3.35;2.10;;;16.10;54.20;;;;;;4996073;28;20575;-64
2023/03/19 14:10:58;;;;;;;2.30;2.00;;;15.80;56.90;;;;;;4998145;28;20216;-63
2023/03/19 14:13:38;;;;;;;4.43;1.90;;;15.80;55.60;;;;;;4998198;28;20223;-64
2023/03/19 14:16:16;;;;;;;1.60;1.50;;;15.90;54.30;;;;;;4996710;28;20217;-63
2023/03/19 14:18:44;;;;;;;2.35;1.20;;;15.90;55.00;;;;;;4994635;28;20187;-64
2023/03/19 14:21:15;;;;;;;1.40;1.10;;;15.90;55.50;;;;;;4995836;28;20290;-64
2023/03/19 14:23:52;;;;;;;1.85;1.70;;;15.90;55.40;;;;;;4997662;28;20203;-63
2023/03/19 14:26:23;;;;;;;1.63;1.52;;;15.70;54.80;;;;;;4998569;28;20244;-63
2023/03/19 14:28:56;;;;;;;4.78;2.03;;;15.70;56.70;;;;;;4996484;28;20245;-63
2023/03/19 14:31:32;;;;;;;3.67;1.83;;;15.60;55.90;;;;;;4995082;28;20634;-62
2023/03/19 14:34:06;;;;;;;1.80;1.20;;;15.30;56.90;;;;;;4995486;28;20750;-63
2023/03/19 14:36:38;;;;;;;2.90;1.30;;;15.10;57.90;;;;;;4996630;28;20718;-63
2023/03/19 14:39:12;;;;;;;1.55;1.45;;;14.90;59.30;;;;;;4997289;28;20191;-63
2023/03/19 14:41:43;;;;;;;3.10;1.70;;;14.70;60.20;;;;;;4994044;28;20229;-63
2023/03/19 14:44:40;;;;;;;2.47;1.20;;;14.50;61.90;;;;;;4993668;28;20697;-63
2023/03/19 14:47:23;;;;;;;1.75;1.52;;;14.40;64.10;;;;;;4968455;28;20198;-63
2023/03/19 14:50:19;;;;;;;1.73;1.63;;;14.30;63.80;;;;;;4993753;28;20701;-63
2023/03/19 14:52:58;;;;;;;1.85;1.40;;;14.20;66.00;;;;;;4994019;28;20223;-63
2023/03/19 14:55:33;;;;;;;3.00;1.40;;;14.20;69.10;;;;;;4993979;28;20194;-63
2023/03/19 14:58:01;;;;;;;3.17;1.35;;;14.20;69.30;;;;;;4993802;28;20720;-63
2023/03/19 15:00:28;;;;;;;3.55;1.35;;;14.20;71.00;;;;;;4994060;28;20206;-63
2023/03/19 15:02:56;;;;;;;3.67;1.48;;;14.30;70.10;;;;;;4993880;28;20624;-64
2023/03/19 15:05:27;;;;;;;3.47;1.50;;;14.30;69.80;;;;;;4993821;28;20230;-63
2023/03/19 15:07:58;;;;;;;3.40;1.50;;;14.30;71.10;;;;;;4993845;28;20183;-63
2023/03/19 15:10:28;;;;;;;1.50;1.15;;;14.30;73.40;;;;;;4994557;28;20187;-63
2023/03/19 15:13:22;;;;;;;2.47;1.30;;;14.30;77.70;;;;;;4993564;28;20630;-63
2023/03/19 15:16:02;;;;;;;2.88;1.38;;;14.30;76.50;;;;;;4991008;28;20230;-63
2023/03/19 15:18:31;;;;;;;1.33;1.23;;;14.30;73.40;;;;;;4993960;28;20191;-63
2023/03/19 15:20:58;;;;;;;1.67;1.20;;;14.20;75.10;;;;;;4993864;28;20198;-63
2023/03/19 15:25:55;;;;;;;1.27;1.20;;;14.20;74.00;;;;;;4956172;28;20219;-64
2023/03/19 15:28:23;;;;;;;1.20;1.10;;;14.10;75.60;;;;;;4958549;29;20207;-64
2023/03/19 15:30:57;;;;;;;1.48;1.38;;;14.00;77.10;;;;;;4958821;29;20208;-64
2023/03/19 15:33:26;;;;;;;1.40;1.30;;;13.90;79.50;;;;;;4958501;29;20248;-65
2023/03/19 15:35:58;;;;;;;2.60;1.70;;;13.90;84.30;;;;;;4939401;29;20214;-64
2023/03/19 15:38:28;;;;;;;3.33;1.60;;;13.90;84.10;;;;;;4939720;29;20185;-64
2023/03/19 15:40:55;;;;;;;2.65;1.75;;;13.90;90.00;;;;;;4939788;29;20224;-65
2023/03/19 15:43:23;;;;;;;1.90;1.40;;;14.00;84.40;;;;;;4939441;29;20576;-65
2023/03/19 15:45:51;;;;;;;1.95;1.50;;;14.00;84.60;;;;;;4939845;29;20216;-65
2023/03/19 15:48:21;;;;;;;1.45;1.35;;;14.00;82.00;;;;;;4939613;29;20212;-66
2023/03/19 15:50:54;;;;;;;2.70;1.60;;;13.90;83.60;;;;;;4939414;29;20208;-65
2023/03/19 15:53:25;;;;;;;1.65;1.23;;;13.70;84.70;;;;;;4939410;29;20637;-65
2023/03/19 15:55:54;;;;;;;2.47;1.35;;;13.60;84.70;;;;;;4939623;29;20193;-65
2023/03/19 15:58:23;;;;;;;1.40;1.30;;;13.40;83.70;;;;;;4939973;29;20247;-64
2023/03/19 16:00:52;;;;;;;1.85;1.40;;;13.20;86.20;;;;;;4939588;29;20576;-65
2023/03/19 16:03:22;;;;;;;1.10;1.08;;;13.10;88.90;;;;;;4939682;29;20276;-65
2023/03/19 16:05:52;;;;;;;1.15;1.15;;;12.90;90.90;;;;;;4939554;29;20220;-65
2023/03/19 16:08:24;;;;;;;0.95;0.95;;;12.70;92.00;;;;;;4938972;29;20205;-65
2023/03/19 16:10:52;;;;;;;1.23;1.10;;;12.60;93.50;;;;;;4939051;29;20200;-65
2023/03/19 16:13:28;;;;;;;1.30;1.20;;;12.50;94.70;;;;;;4939032;29;20208;-64
2023/03/19 16:15:56;;;;;;;2.00;1.10;;;12.40;96.50;;;;;;4938804;29;20595;-65
2023/03/19 16:18:29;;;;;;;2.67;1.30;;;12.30;98.40;;;;;;4938732;29;20280;-65
2023/03/19 16:21:07;;;;;;;1.60;1.40;;;12.20;99.90;;;;;;4938830;29;20189;-65
2023/03/19 16:23:37;;;;;;;2.15;1.05;;;12.10;99.90;;;;;;4938452;29;20189;-65
2023/03/19 16:26:13;;;;;;;2.17;1.90;;;12.00;99.90;;;;;;4938590;29;20656;-65
2023/03/19 16:28:43;;;;;;;2.15;2.00;;;12.00;99.90;;;;;;4938886;29;20196;-65
2023/03/19 16:31:21;;;;;;;4.57;2.47;;;11.90;99.90;;;;;;4938561;29;20638;-65
2023/03/19 16:33:49;;;;;;;2.00;1.90;;;11.80;99.90;;;;;;4938582;29;20232;-65
2023/03/19 16:36:16;;;;;;;4.57;2.40;;;11.80;99.90;;;;;;4938068;29;20231;-64
2023/03/19 16:38:52;;;;;;;2.65;2.13;;;11.70;99.90;;;;;;4938507;29;20234;-64
2023/03/19 16:41:24;;;;;;;5.95;1.90;;;11.60;99.90;;;;;;4938575;29;20189;-65
2023/03/19 16:43:53;;;;;;;4.93;2.15;;;11.50;99.90;;;;;;4938282;29;20726;-65
2023/03/19 16:46:20;;;;;;;2.65;1.80;;;11.50;99.90;;;;;;4938323;29;20205;-64
2023/03/19 16:48:46;;;;;;;2.65;2.17;;;11.40;99.90;;;;;;4938250;29;20200;-65
2023/03/19 16:51:16;;;;;;;2.50;2.15;;;11.30;99.90;;;;;;4938098;29;20211;-65
2023/03/19 16:53:45;;;;;;;1.10;1.00;;;11.20;99.90;;;;;;4937985;29;20216;-65
2023/03/19 16:56:14;;;;;;;0.95;0.60;;;11.00;99.90;;;;;;4937843;29;20209;-65
2023/03/19 16:58:43;;;;;;;0.65;0.65;;;10.70;99.90;;;;;;4937936;29;20209;-65
2023/03/19 17:01:16;;;;;;;1.52;0.60;;;10.40;99.90;;;;;;4937965;29;20199;-65
2023/03/19 17:03:44;;;;;;;0.52;0.52;;;10.20;99.90;;;;;;4937425;29;20739;-65
2023/03/19 17:06:11;;;;;;;0.60;0.60;;;10.00;99.90;;;;;;4937670;29;20259;-65
2023/03/19 17:08:38;;;;;;;0.60;0.60;;;9.80;99.90;;;;;;4937771;29;20205;-65
2023/03/19 17:11:10;;;;;;;0.60;0.60;;;9.70;99.90;;;;;;4937886;29;20193;-64
2023/03/19 17:13:40;;;;;;;0.52;0.52;;;9.60;99.90;;;;;;4937813;29;20193;-65
2023/03/19 17:16:08;;;;;;;0.60;0.60;;;9.50;99.90;;;;;;4937549;29;20211;-64
2023/03/19 17:18:38;;;;;;;0.50;0.50;;;9.40;99.90;;;;;;4937581;29;20208;-65
2023/03/19 17:21:07;;;;;;;0.50;0.50;;;9.40;99.90;;;;;;4937509;29;20248;-65
2023/03/19 17:23:34;;;;;;;0.40;0.40;;;9.40;99.90;;;;;;4937431;29;20207;-65
2023/03/19 17:26:03;;;;;;;0.50;0.50;;;9.30;99.90;;;;;;4937683;29;20230;-65
2023/03/19 17:28:31;;;;;;;0.45;0.45;;;9.20;99.90;;;;;;4937274;29;20204;-66
2023/03/19 17:30:58;;;;;;;0.45;0.45;;;9.10;99.90;;;;;;4937443;29;20235;-66
2023/03/19 17:33:27;;;;;;;0.47;0.45;;;9.00;99.90;;;;;;4937412;29;20209;-65
2023/03/19 17:35:54;;;;;;;0.45;0.45;;;8.90;99.90;;;;;;4937406;29;20204;-66
2023/03/19 17:38:22;;;;;;;0.88;0.70;;;8.80;99.90;;;;;;4937366;29;20275;-65
2023/03/19 17:40:51;;;;;;;0.60;0.60;;;8.70;99.90;;;;;;4937339;29;20193;-66
2023/03/19 17:43:17;;;;;;;1.05;0.90;;;8.50;99.90;;;;;;4937117;29;20253;-66
2023/03/19 17:45:47;;;;;;;0.75;0.75;;;8.30;99.90;;;;;;4937151;29;20298;-65
2023/03/19 17:48:18;;;;;;;0.80;0.80;;;8.20;99.90;;;;;;4936117;29;20296;-65
2023/03/19 17:50:45;;;;;;;0.82;0.80;;;8.10;99.90;;;;;;4937125;29;20189;-65
2023/03/19 17:53:13;;;;;;;1.00;0.90;;;8.00;99.90;;;;;;4937882;29;20205;-64
2023/03/19 17:55:40;;;;;;;0.68;0.68;;;8.00;99.90;;;;;;4937053;29;20242;-64
2023/03/19 17:58:15;;;;;;;0.68;0.68;;;8.00;99.90;;;;;;4936728;29;20311;-64
2023/03/19 18:00:41;;;;;;;1.05;1.00;;;7.90;99.90;;;;;;4937435;29;20275;-66
2023/03/19 18:03:13;;;;;;;0.82;0.82;;;7.90;99.90;;;;;;4937143;29;20204;-65
2023/03/19 18:05:40;;;;;;;1.48;1.20;;;7.90;99.90;;;;;;4936815;29;20239;-65
2023/03/19 18:08:09;;;;;;;1.60;1.50;;;7.80;99.90;;;;;;4936915;29;20252;-65
2023/03/19 18:10:36;;;;;;;1.20;1.20;;;7.80;99.90;;;;;;4936788;29;20733;-65
2023/03/19 18:13:03;;;;;;;0.90;0.90;;;7.80;99.90;;;;;;4936555;29;20618;-65
2023/03/19 18:15:30;;;;;;;4.05;2.38;;;7.70;99.90;;;;;;4936696;29;20280;-64
2023/03/19 18:17:59;;;;;;;2.47;2.28;;;7.60;99.90;;;;;;4936805;29;20256;-65
2023/03/19 18:20:29;;;;;;;4.10;3.42;;;7.60;99.90;;;;;;4936181;29;20244;-64
2023/03/19 18:22:56;;;;;;;2.97;2.78;;;7.50;99.90;;;;;;4936375;29;20212;-64
2023/03/19 18:25:25;;;;;;;6.00;4.45;;;7.50;99.90;;;;;;4936041;29;20279;-64
2023/03/19 18:27:52;;;;;;;7.18;4.32;;;7.50;99.90;;;;;;4936389;29;20211;-65
2023/03/19 18:30:22;;;;;;;3.65;3.28;;;7.50;99.90;;;;;;4936375;29;20209;-64
2023/03/19 18:32:54;;;;;;;3.15;2.70;;;7.50;99.90;;;;;;4936341;29;20208;-64
2023/03/19 18:35:24;;;;;;;2.78;2.42;;;7.60;99.90;;;;;;4936109;29;20723;-64
2023/03/19 18:37:53;;;;;;;1.80;1.70;;;7.60;99.90;;;;;;4936256;29;20224;-64
2023/03/19 18:40:22;;;;;;;1.88;1.77;;;7.60;99.90;;;;;;4936101;29;20595;-65
2023/03/19 18:42:49;;;;;;;1.40;1.40;;;7.50;99.90;;;;;;4936328;29;20212;-64
2023/03/19 18:45:17;;;;;;;1.20;1.20;;;7.50;99.90;;;;;;4936249;29;20267;-64
2023/03/19 18:47:45;;;;;;;1.27;1.17;;;7.50;99.90;;;;;;4935785;29;20197;-65
2023/03/19 18:50:17;;;;;;;0.80;0.80;;;7.40;99.90;;;;;;4936246;29;20204;-64
2023/03/19 18:52:44;;;;;;;0.90;0.90;;;7.40;99.90;;;;;;4936092;29;20204;-64
2023/03/19 18:55:13;;;;;;;0.80;0.80;;;7.30;99.90;;;;;;4936161;29;20225;-63
2023/03/19 18:57:43;;;;;;;0.80;0.80;;;7.30;99.90;;;;;;4936143;29;20232;-64
2023/03/19 19:00:18;;;;;;;1.15;1.15;;;7.20;99.90;;;;;;4938948;29;20248;-63
2023/03/19 19:02:46;;;;;;;0.70;0.70;;;7.10;99.90;;;;;;4939624;29;20184;-64
2023/03/19 19:05:18;;;;;;;0.88;0.88;;;7.10;99.90;;;;;;4940012;29;20275;-64
2023/03/19 19:07:44;;;;;;;0.80;0.80;;;7.00;99.90;;;;;;4940151;29;20210;-63
2023/03/19 19:10:13;;;;;;;1.30;0.75;;;6.90;99.90;;;;;;4940041;29;20260;-66
2023/03/19 19:12:43;;;;;;;0.70;0.70;;;6.80;99.90;;;;;;4939890;29;20212;-67
2023/03/19 19:15:18;;;;;;;0.60;0.60;;;6.80;99.90;;;;;;4939819;29;20225;-64
2023/03/19 19:17:45;;;;;;;0.90;0.70;;;6.70;99.90;;;;;;4939960;29;20212;-65
2023/03/19 19:20:16;;;;;;;0.80;0.80;;;6.70;99.90;;;;;;4940035;29;20334;-64
2023/03/19 19:22:42;;;;;;;1.05;1.05;;;6.70;99.90;;;;;;4940255;29;20221;-65
2023/03/19 19:25:16;;;;;;;0.80;0.80;;;6.60;99.90;;;;;;4939551;29;20274;-65
2023/03/19 19:27:44;;;;;;;0.80;0.80;;;6.60;99.90;;;;;;4940217;29;20185;-65
2023/03/19 19:30:16;;;;;;;0.80;0.80;;;6.60;99.90;;;;;;4939919;29;20201;-65
2023/03/19 19:32:43;;;;;;;0.90;0.90;;;6.60;99.90;;;;;;4940716;29;20268;-66
2023/03/19 19:35:15;;;;;;;1.05;0.90;;;6.50;99.90;;;;;;4941398;29;20735;-65
2023/03/19 19:37:42;;;;;;;0.70;0.70;;;6.50;99.90;;;;;;4940113;29;20236;-65
2023/03/19 19:40:13;;;;;;;1.60;0.80;;;6.40;99.90;;;;;;4939523;29;20200;-64
2023/03/19 19:42:42;;;;;;;0.85;0.80;;;6.40;99.90;;;;;;4939500;29;20204;-66
2023/03/19 19:45:26;;;;;;;0.80;0.80;;;6.40;99.90;;;;;;4939470;29;20323;-65
2023/03/19 19:47:53;;;;;;;0.50;0.50;;;6.40;99.90;;;;;;4939589;29;20192;-65
2023/03/19 19:50:20;;;;;;;0.60;0.60;;;6.30;99.90;;;;;;4939471;29;20627;-65
2023/03/19 19:52:48;;;;;;;0.65;0.65;;;6.30;99.90;;;;;;4939456;29;20260;-65
2023/03/19 19:55:15;;;;;;;0.60;0.60;;;6.20;99.90;;;;;;4939178;29;20315;-65
2023/03/19 19:57:44;;;;;;;0.65;0.65;;;6.20;99.90;;;;;;4938655;29;20590;-65
2023/03/19 20:00:18;;;;;;;0.57;0.57;;;6.10;99.90;;;;;;4938882;29;20576;-64
2023/03/19 20:02:44;;;;;;;0.68;0.68;;;6.00;99.90;;;;;;4938964;29;20189;-65
2023/03/19 20:05:17;;;;;;;0.75;0.75;;;5.90;99.90;;;;;;4938907;29;20224;-65
2023/03/19 20:07:45;;;;;;;0.60;0.60;;;;;;;;;;4938957;29;20181;-65
2023/03/19 20:10:12;;;;;;;0.85;0.85;;;5.60;99.90;;;;;;4939032;29;20636;-65
2023/03/19 20:12:42;;;;;;;0.70;0.70;;;5.70;99.90;;;;;;4938278;29;20621;-65
2023/03/19 20:15:18;;;;;;;0.65;0.65;;;5.70;99.90;;;;;;4938902;29;20312;-65
2023/03/19 20:17:46;;;;;;;0.55;0.55;;;5.60;99.90;;;;;;4938730;29;20219;-65
2023/03/19 20:20:21;;;;;;;0.70;0.70;;;5.60;99.90;;;;;;4938621;29;20201;-65
2023/03/19 20:22:48;;;;;;;0.50;0.50;;;5.60;99.90;;;;;;4938736;29;20204;-65
2023/03/19 20:25:17;;;;;;;0.50;0.50;;;5.50;99.90;;;;;;4938246;29;20268;-65
2023/03/19 20:27:45;;;;;;;0.50;0.50;;;5.50;99.90;;;;;;4938455;29;20304;-65
2023/03/19 20:30:22;;;;;;;0.50;0.50;;;5.50;99.90;;;;;;4938216;29;20252;-65
2023/03/19 20:32:49;;;;;;;0.57;0.57;;;5.60;99.90;;;;;;4938379;29;20193;-65